Time;durP1;ratioP1;P1;durP2;ratioP2;P2;SDS_P1;SDS_P2;PMS_P1;PMS_P2;Temp;Humidity;BMP_temperature;BMP_pressure;BME280_temperature;BME280_humidity;BME280_pressure;Samples;Min_cycle;Max_cycle;Signal;HPM_P1;HPM_P2
2023/10/04 00:00:19;;;;;;;21.90;14.30;;;;;;;12.08;100.00;102359.03;5059360;28;20410;-63
2023/10/04 00:02:49;;;;;;;21.23;13.43;;;;;;;12.02;100.00;102360.97;5070038;28;20038;-63
2023/10/04 00:05:16;;;;;;;22.38;13.77;;;;;;;12.02;100.00;102360.16;5062267;28;20665;-63
2023/10/04 00:07:46;;;;;;;22.90;13.68;;;;;;;11.94;100.00;102358.75;5060093;28;20025;-63
2023/10/04 00:10:12;;;;;;;22.63;13.55;;;;;;;11.89;100.00;102355.13;5067639;28;20055;-63
2023/10/04 00:12:38;;;;;;;22.85;13.90;;;;;;;11.93;100.00;102359.03;5073112;28;20032;-63
2023/10/04 00:15:09;;;;;;;19.70;13.05;;;;;;;11.88;100.00;102367.34;5070071;28;20032;-63
2023/10/04 00:17:34;;;;;;;21.02;13.20;;;;;;;11.88;100.00;102370.97;5059305;28;20112;-63
2023/10/04 00:19:59;;;;;;;20.23;13.02;;;;;;;11.89;100.00;102378.16;5061467;28;20479;-63
2023/10/04 00:22:25;;;;;;;20.27;13.40;;;;;;;11.90;100.00;102379.00;5061213;28;20056;-63
2023/10/04 00:24:51;;;;;;;20.58;12.85;;;;;;;11.94;100.00;102377.34;5070602;28;20069;-62
2023/10/04 00:27:18;;;;;;;23.38;13.15;;;;;;;11.96;100.00;102386.19;5071220;28;20031;-63
2023/10/04 00:29:44;;;;;;;23.35;13.50;;;;;;;11.92;100.00;102377.59;5055714;28;20021;-63
2023/10/04 00:32:09;;;;;;;22.25;14.32;;;;;;;11.91;100.00;102378.69;5058708;28;20389;-63
2023/10/04 00:34:35;;;;;;;20.58;13.48;;;;;;;11.89;100.00;102378.16;5052824;28;20090;-63
2023/10/04 00:37:00;;;;;;;21.52;13.20;;;;;;;11.85;100.00;102377.88;5066844;28;20036;-63
2023/10/04 00:39:25;;;;;;;22.20;13.57;;;;;;;11.83;100.00;102368.16;5067051;28;20036;-64
2023/10/04 00:41:53;;;;;;;24.05;13.93;;;;;;;11.82;100.00;102378.44;5067517;28;20045;-62
2023/10/04 00:44:19;;;;;;;19.48;13.23;;;;;;;11.86;100.00;102364.84;5061576;28;20100;-62
2023/10/04 00:46:45;;;;;;;22.92;13.45;;;;;;;11.84;100.00;102375.38;5067202;28;20115;-62
2023/10/04 00:49:12;;;;;;;20.70;13.30;;;;;;;11.82;100.00;102372.03;5064534;28;20040;-62
2023/10/04 00:51:39;;;;;;;22.17;13.95;;;;;;;11.80;100.00;102372.34;5065084;28;20044;-62
2023/10/04 00:54:08;;;;;;;23.70;13.50;;;;;;;11.78;100.00;102382.03;5069751;28;20025;-61
2023/10/04 00:56:38;;;;;;;22.27;13.68;;;;;;;11.76;100.00;102381.47;5064083;28;20029;-62
2023/10/04 00:59:04;;;;;;;21.65;13.80;;;;;;;11.78;100.00;102382.03;5062567;28;20081;-62
2023/10/04 01:01:31;;;;;;;22.08;13.63;;;;;;;11.77;100.00;102397.00;5072388;28;20028;-62
2023/10/04 01:03:56;;;;;;;21.40;12.95;;;;;;;11.75;100.00;102397.31;5068187;28;20025;-62
2023/10/04 01:06:22;;;;;;;23.73;13.40;;;;;;;11.77;100.00;102395.06;5065554;28;20154;-62
2023/10/04 01:08:48;;;;;;;23.08;13.35;;;;;;;11.75;100.00;102396.44;5036321;28;20032;-62
2023/10/04 01:11:13;;;;;;;19.70;13.20;;;;;;;11.75;100.00;102393.69;5063969;28;20025;-60
2023/10/04 01:13:39;;;;;;;20.83;13.50;;;;;;;11.75;100.00;102402.00;5058314;28;20029;-62
2023/10/04 01:16:08;;;;;;;21.65;13.85;;;;;;;11.74;100.00;102403.09;5066977;28;20024;-61
2023/10/04 01:18:35;;;;;;;22.83;13.45;;;;;;;11.73;100.00;102401.44;5065247;28;20039;-62
2023/10/04 01:21:00;;;;;;;21.33;13.10;;;;;;;11.71;100.00;102398.94;5062329;28;20037;-64
2023/10/04 01:23:25;;;;;;;20.90;13.02;;;;;;;11.72;100.00;102403.38;5067108;28;20169;-64
2023/10/04 01:25:51;;;;;;;20.58;13.35;;;;;;;11.72;100.00;102414.47;5069302;28;20028;-62
2023/10/04 01:28:18;;;;;;;21.70;13.30;;;;;;;11.72;100.00;102403.38;5063553;28;20029;-62
2023/10/04 01:30:45;;;;;;;23.27;13.57;;;;;;;11.71;100.00;102412.81;5071918;28;20107;-62
2023/10/04 01:33:32;;;;;;;22.20;13.63;;;;;;;11.70;100.00;102408.38;5067628;28;20035;-61
2023/10/04 01:35:57;;;;;;;20.65;13.30;;;;;;;11.73;100.00;102413.38;5068386;28;20032;-62
2023/10/04 01:38:27;;;;;;;23.10;13.63;;;;;;;11.72;100.00;102406.16;5064189;28;20472;-62
2023/10/04 01:40:54;;;;;;;21.10;13.98;;;;;;;11.74;100.00;102411.41;5063189;28;20043;-62
2023/10/04 01:43:20;;;;;;;19.75;12.93;;;;;;;11.75;100.00;102413.09;5063194;28;20035;-62
2023/10/04 01:45:59;;;;;;;19.83;13.30;;;;;;;11.78;100.00;102412.53;5057082;28;20099;-61
2023/10/04 01:48:26;;;;;;;20.30;13.15;;;;;;;11.77;100.00;102410.88;5064601;28;20611;-62
2023/10/04 01:50:52;;;;;;;20.63;13.70;;;;;;;11.78;100.00;102413.38;5071533;28;20040;-61
2023/10/04 01:53:22;;;;;;;20.50;13.30;;;;;;;11.75;100.00;102413.94;5070209;28;20017;-62
2023/10/04 01:55:48;;;;;;;23.85;13.85;;;;;;;11.76;100.00;102415.56;5057688;28;20033;-62
2023/10/04 01:58:15;;;;;;;24.25;13.40;;;;;;;11.74;100.00;102416.97;5071771;28;20020;-61
2023/10/04 02:00:41;;;;;;;20.73;13.95;;;;;;;11.72;100.00;102417.25;5062822;28;20033;-61
2023/10/04 02:03:09;;;;;;;21.30;13.00;;;;;;;11.70;100.00;102412.00;5091815;28;20030;-61
2023/10/04 02:05:37;;;;;;;21.15;13.48;;;;;;;11.73;100.00;102416.16;5068002;28;20036;-62
2023/10/04 02:08:12;;;;;;;19.88;13.30;;;;;;;11.76;100.00;102417.53;5071376;28;20101;-61
2023/10/04 02:10:38;;;;;;;20.65;13.10;;;;;;;11.75;100.00;102404.78;5068170;28;20058;-62
2023/10/04 02:13:07;;;;;;;24.63;13.52;;;;;;;11.77;100.00;102411.69;5071284;28;20039;-62
2023/10/04 02:15:37;;;;;;;22.42;13.40;;;;;;;11.75;100.00;102400.06;5068817;28;20110;-63
2023/10/04 02:18:04;;;;;;;21.55;13.60;;;;;;;11.76;100.00;102404.47;5070870;28;20484;-62
2023/10/04 02:20:32;;;;;;;20.63;13.32;;;;;;;11.78;100.00;102407.00;5068746;28;20029;-62
2023/10/04 02:22:58;;;;;;;24.92;13.50;;;;;;;11.79;100.00;102397.56;5071440;28;20024;-62
2023/10/04 02:25:24;;;;;;;20.88;13.18;;;;;;;11.80;100.00;102410.34;5063430;28;20036;-62
2023/10/04 02:28:01;;;;;;;21.63;13.60;;;;;;;11.81;100.00;102398.97;5071953;28;20024;-62
2023/10/04 02:30:26;;;;;;;22.05;14.07;;;;;;;11.80;100.00;102400.06;5071201;28;20032;-62
2023/10/04 02:32:53;;;;;;;22.92;13.77;;;;;;;11.79;100.00;102394.81;5070540;28;20043;-62
2023/10/04 02:35:34;;;;;;;21.27;13.73;;;;;;;11.78;100.00;102399.50;5070994;28;20028;-62
2023/10/04 02:38:00;;;;;;;22.75;13.90;;;;;;;11.79;100.00;102401.16;5066172;28;20024;-62
2023/10/04 02:40:32;;;;;;;20.88;14.35;;;;;;;11.78;100.00;102410.59;5060280;28;20072;-62
2023/10/04 02:42:58;;;;;;;22.15;13.73;;;;;;;11.77;100.00;102410.88;5073677;28;20028;-62
2023/10/04 02:45:24;;;;;;;21.17;13.40;;;;;;;11.79;100.00;102416.97;5070536;28;20472;-62
2023/10/04 02:47:52;;;;;;;22.10;13.75;;;;;;;11.75;100.00;102408.38;5074461;28;20037;-62
2023/10/04 02:50:19;;;;;;;21.15;13.63;;;;;;;11.77;100.00;102408.09;5070412;28;20027;-63
2023/10/04 02:52:50;;;;;;;21.00;13.25;;;;;;;11.75;100.00;102413.94;5078847;28;20028;-62
2023/10/04 02:55:17;;;;;;;21.40;13.30;;;;;;;11.73;100.00;102421.69;5060742;28;20499;-64
2023/10/04 02:57:49;;;;;;;21.88;13.57;;;;;;;11.70;100.00;102419.47;5070237;28;20037;-62
2023/10/04 03:00:19;;;;;;;20.75;13.50;;;;;;;11.70;100.00;102419.47;5055193;28;20488;-62
2023/10/04 03:02:50;;;;;;;20.25;13.40;;;;;;;11.69;100.00;102415.88;5050842;28;20044;-62
2023/10/04 03:05:18;;;;;;;21.42;13.45;;;;;;;11.68;100.00;102429.97;5059665;28;20048;-61
2023/10/04 03:07:45;;;;;;;21.10;13.18;;;;;;;11.67;100.00;102412.53;5069047;28;20102;-62
2023/10/04 03:10:11;;;;;;;23.80;14.00;;;;;;;11.64;100.00;102417.78;5058207;28;20457;-64
2023/10/04 03:12:38;;;;;;;20.50;13.35;;;;;;;11.62;100.00;102423.59;5063998;28;20023;-62
2023/10/04 03:15:03;;;;;;;20.73;13.80;;;;;;;11.59;100.00;102415.00;5069430;28;20032;-61
2023/10/04 03:17:29;;;;;;;18.65;12.90;;;;;;;11.58;100.00;102424.41;5064092;28;20032;-61
2023/10/04 03:19:55;;;;;;;22.92;13.57;;;;;;;11.52;100.00;102432.72;5052039;28;20036;-62
2023/10/04 03:22:22;;;;;;;22.10;12.80;;;;;;;11.51;100.00;102444.09;5079107;28;20028;-61
2023/10/04 03:24:49;;;;;;;23.27;14.18;;;;;;;11.48;100.00;102439.91;5090761;28;20028;-61
2023/10/04 03:27:15;;;;;;;21.65;13.95;;;;;;;11.44;100.00;102435.19;5072136;28;20104;-63
2023/10/04 03:29:40;;;;;;;22.55;13.98;;;;;;;11.41;100.00;102442.13;5070251;28;20115;-62
2023/10/04 03:32:06;;;;;;;23.15;13.75;;;;;;;11.37;100.00;102446.56;5066266;28;20029;-62
2023/10/04 03:34:31;;;;;;;21.20;13.30;;;;;;;11.34;100.00;102450.69;5056032;28;20093;-62
2023/10/04 03:37:08;;;;;;;21.40;13.30;;;;;;;11.30;100.00;102446.81;5067075;28;20472;-62
2023/10/04 03:39:33;;;;;;;21.92;12.50;;;;;;;11.28;100.00;102439.88;5070320;28;20333;-62
2023/10/04 03:41:59;;;;;;;24.20;13.27;;;;;;;11.26;100.00;102442.09;5072360;28;20041;-62
2023/10/04 03:44:25;;;;;;;23.73;13.43;;;;;;;11.22;100.00;102431.53;5055202;28;20383;-62
2023/10/04 03:46:53;;;;;;;22.45;13.27;;;;;;;11.20;100.00;102430.16;5072944;28;20036;-62
2023/10/04 03:49:19;;;;;;;20.58;13.52;;;;;;;11.17;100.00;102433.44;5065361;28;20115;-62
2023/10/04 03:51:45;;;;;;;22.58;13.60;;;;;;;11.15;100.00;102427.34;5076708;28;20016;-62
2023/10/04 03:54:10;;;;;;;19.52;13.80;;;;;;;11.10;100.00;102436.47;5076085;28;20055;-62
2023/10/04 03:56:35;;;;;;;23.25;14.15;;;;;;;11.08;100.00;102441.47;5072556;28;20028;-62
2023/10/04 03:59:01;;;;;;;23.77;13.98;;;;;;;11.04;100.00;102429.25;5067831;28;20036;-62
2023/10/04 04:01:27;;;;;;;22.70;13.73;;;;;;;11.01;100.00;102427.00;5045181;28;20060;-62
2023/10/04 04:03:53;;;;;;;23.48;14.07;;;;;;;10.98;100.00;102430.34;5069077;28;20040;-63
2023/10/04 04:06:18;;;;;;;23.83;13.60;;;;;;;10.94;100.00;102424.50;5066354;28;20029;-62
2023/10/04 04:08:46;;;;;;;27.55;15.25;;;;;;;10.92;100.00;102426.72;5060874;28;20029;-62
2023/10/04 04:11:14;;;;;;;21.23;14.05;;;;;;;10.90;100.00;102435.31;5072448;28;20036;-62
2023/10/04 04:13:40;;;;;;;22.65;14.45;;;;;;;10.88;100.00;102434.72;5070402;28;20032;-62
2023/10/04 04:16:09;;;;;;;25.42;14.95;;;;;;;10.83;100.00;102442.19;5070552;28;20053;-63
2023/10/04 04:18:37;;;;;;;25.35;14.50;;;;;;;10.82;100.00;102441.31;5072915;28;20035;-62
2023/10/04 04:21:05;;;;;;;22.98;14.73;;;;;;;10.83;100.00;102444.94;5065656;28;20064;-63
2023/10/04 04:23:31;;;;;;;23.77;14.70;;;;;;;10.80;100.00;102437.16;5069167;28;20036;-63
2023/10/04 04:25:59;;;;;;;23.10;14.70;;;;;;;10.74;100.00;102430.75;5068795;28;20082;-63
2023/10/04 04:28:24;;;;;;;22.73;15.30;;;;;;;10.71;100.00;102429.38;5069663;28;20044;-63
2023/10/04 04:30:51;;;;;;;22.48;14.77;;;;;;;10.68;100.00;102426.31;5070893;28;20025;-63
2023/10/04 04:33:16;;;;;;;24.40;15.23;;;;;;;10.63;100.00;102424.34;5066140;28;20160;-63
2023/10/04 04:38:21;;;;;;;24.90;14.75;;;;;;;10.60;100.00;102416.56;5081006;28;20062;-63
2023/10/04 04:40:52;;;;;;;21.05;14.55;;;;;;;10.54;100.00;102410.16;5092865;28;20040;-63
2023/10/04 04:43:25;;;;;;;23.73;14.80;;;;;;;10.57;100.00;102425.44;5076174;28;20090;-62
2023/10/04 04:45:53;;;;;;;21.05;15.10;;;;;;;10.52;100.00;102422.63;5071370;28;20029;-63
2023/10/04 04:48:25;;;;;;;24.05;15.23;;;;;;;10.50;100.00;102424.81;5061512;28;20033;-63
2023/10/04 04:50:57;;;;;;;24.37;15.73;;;;;;;10.49;100.00;102423.13;5072506;28;20103;-62
2023/10/04 04:53:23;;;;;;;23.17;15.45;;;;;;;10.45;100.00;102418.16;5062035;28;20345;-62
2023/10/04 04:55:50;;;;;;;23.42;15.15;;;;;;;10.43;100.00;102408.47;5072153;28;20039;-62
2023/10/04 04:58:19;;;;;;;22.15;15.15;;;;;;;10.40;100.00;102415.34;5071698;28;20577;-61
2023/10/04 05:00:47;;;;;;;23.67;15.13;;;;;;;10.34;100.00;102418.34;5071822;28;20036;-62
2023/10/04 05:03:12;;;;;;;22.23;15.20;;;;;;;10.28;100.00;102412.75;5083532;28;20031;-62
2023/10/04 05:05:39;;;;;;;24.10;15.60;;;;;;;10.29;100.00;102419.13;5064149;28;20036;-62
2023/10/04 05:08:05;;;;;;;23.45;14.80;;;;;;;10.30;100.00;102424.38;5062116;28;20590;-61
2023/10/04 05:10:34;;;;;;;23.77;15.10;;;;;;;10.35;100.00;102433.81;5057664;28;20045;-62
2023/10/04 05:13:01;;;;;;;23.70;15.38;;;;;;;10.34;100.00;102435.75;5068313;28;20028;-63
2023/10/04 05:15:33;;;;;;;23.17;14.82;;;;;;;10.28;100.00;102429.34;5057294;28;20082;-63
2023/10/04 05:18:00;;;;;;;24.47;15.03;;;;;;;10.28;100.00;102434.06;5071492;28;20044;-62
2023/10/04 05:20:27;;;;;;;21.08;14.60;;;;;;;10.28;100.00;102450.66;5070265;28;20037;-62
2023/10/04 05:22:53;;;;;;;24.65;15.13;;;;;;;10.33;100.00;102467.28;5063884;28;20036;-62
2023/10/04 05:25:20;;;;;;;24.48;15.07;;;;;;;10.34;100.00;102471.72;5064589;28;20050;-61
2023/10/04 05:27:48;;;;;;;26.80;15.05;;;;;;;10.28;100.00;102468.06;5058883;28;20040;-62
2023/10/04 05:30:15;;;;;;;22.25;14.55;;;;;;;10.27;100.00;102471.09;5055829;28;20033;-62
2023/10/04 05:32:45;;;;;;;25.08;14.70;;;;;;;10.22;100.00;102471.91;5065633;28;20028;-61
2023/10/04 05:35:14;;;;;;;26.38;15.38;;;;;;;10.20;100.00;102467.75;5061709;28;20151;-61
2023/10/04 05:37:40;;;;;;;26.77;15.63;;;;;;;10.16;100.00;102472.94;5068212;28;20020;-61
2023/10/04 05:40:12;;;;;;;24.58;15.63;;;;;;;10.14;100.00;102475.97;5060280;28;20047;-62
2023/10/04 05:42:38;;;;;;;23.48;14.88;;;;;;;10.14;100.00;102480.69;5053849;28;20052;-62
2023/10/04 05:45:06;;;;;;;24.40;14.27;;;;;;;10.11;100.00;102476.50;5063688;28;20086;-62
2023/10/04 05:47:32;;;;;;;24.50;15.27;;;;;;;10.14;100.00;102475.16;5065328;28;20089;-62
2023/10/04 05:49:58;;;;;;;26.00;15.88;;;;;;;10.13;100.00;102479.00;5059650;28;20125;-61
2023/10/04 05:52:23;;;;;;;24.67;14.95;;;;;;;10.14;100.00;102486.22;5066967;28;20068;-62
2023/10/04 05:54:48;;;;;;;24.50;14.30;;;;;;;10.11;100.00;102482.03;5064390;28;20029;-62
2023/10/04 05:57:14;;;;;;;26.35;14.23;;;;;;;10.14;100.00;102487.03;5068831;28;20512;-64
2023/10/04 05:59:39;;;;;;;22.48;13.80;;;;;;;10.17;100.00;102499.50;5066316;28;20040;-62
2023/10/04 06:02:04;;;;;;;25.17;13.93;;;;;;;10.14;100.00;102500.88;5060325;28;20031;-62
2023/10/04 06:04:30;;;;;;;24.02;13.35;;;;;;;10.18;100.00;102505.88;5071006;28;20391;-63
2023/10/04 06:06:55;;;;;;;25.38;13.45;;;;;;;10.20;100.00;102495.41;5066140;28;20109;-63
2023/10/04 06:09:27;;;;;;;22.63;13.50;;;;;;;10.19;100.00;102504.78;5070987;28;20103;-63
2023/10/04 06:11:52;;;;;;;25.92;13.48;;;;;;;10.18;100.00;102494.81;5058700;28;20037;-63
2023/10/04 06:14:17;;;;;;;22.60;13.55;;;;;;;10.22;100.00;102482.97;5067775;28;20037;-63
2023/10/04 06:16:43;;;;;;;23.80;13.63;;;;;;;10.26;100.00;102497.09;5060320;28;20036;-63
2023/10/04 06:19:08;;;;;;;22.67;13.90;;;;;;;10.28;100.00;102500.44;5069862;28;20064;-63
2023/10/04 06:21:33;;;;;;;24.08;13.45;;;;;;;10.31;100.00;102510.97;5070513;28;20087;-63
2023/10/04 06:23:58;;;;;;;22.92;13.02;;;;;;;10.32;100.00;102512.63;5067415;28;20492;-62
2023/10/04 06:26:24;;;;;;;22.60;13.30;;;;;;;10.33;100.00;102516.25;5052137;28;20442;-63
2023/10/04 06:28:50;;;;;;;21.08;12.63;;;;;;;10.35;100.00;102523.19;5067778;28;20037;-63
2023/10/04 06:31:15;;;;;;;21.05;12.63;;;;;;;10.38;100.00;102517.16;5050045;28;20025;-63
2023/10/04 06:33:42;;;;;;;24.45;12.77;;;;;;;10.38;100.00;102516.31;5040470;28;20032;-62
2023/10/04 06:36:09;;;;;;;22.83;13.20;;;;;;;10.40;100.00;102525.19;5049155;28;20051;-62
2023/10/04 06:38:35;;;;;;;25.25;12.93;;;;;;;10.39;100.00;102537.34;5059841;28;20029;-62
2023/10/04 06:41:03;;;;;;;23.40;13.65;;;;;;;10.43;100.00;102532.97;5053144;28;20102;-62
2023/10/04 06:43:29;;;;;;;23.80;13.80;;;;;;;10.44;100.00;102529.94;5059289;28;20075;-62
2023/10/04 06:45:55;;;;;;;24.33;13.15;;;;;;;10.49;100.00;102523.59;5061012;28;20127;-61
2023/10/04 06:48:20;;;;;;;25.20;13.80;;;;;;;10.50;100.00;102533.56;5056215;28;20412;-62
2023/10/04 06:50:49;;;;;;;24.25;13.40;;;;;;;10.51;100.00;102532.47;5041128;28;20040;-62
2023/10/04 06:53:15;;;;;;;22.20;13.30;;;;;;;10.54;100.00;102531.94;5072456;28;20020;-61
2023/10/04 06:55:42;;;;;;;23.83;13.27;;;;;;;10.54;100.00;102529.16;5073588;28;20039;-62
2023/10/04 06:58:10;;;;;;;26.45;13.55;;;;;;;10.61;100.00;102532.56;5057427;28;20103;-62
2023/10/04 07:00:36;;;;;;;25.08;13.20;;;;;;;10.67;100.00;102525.13;5057653;28;20068;-62
2023/10/04 07:03:02;;;;;;;26.55;13.57;;;;;;;10.70;100.00;102532.06;5056563;28;20424;-62
2023/10/04 07:05:35;;;;;;;24.85;13.70;;;;;;;10.74;100.00;102530.41;5060991;28;20031;-62
2023/10/04 07:08:01;;;;;;;;;;;;;;;10.82;100.00;102535.44;5069986;28;20024;-62
2023/10/04 07:10:30;;;;;;;23.05;12.70;;;;;;;10.92;100.00;102531.94;5063301;28;19927;-62
2023/10/04 07:13:01;;;;;;;24.55;12.82;;;;;;;11.01;100.00;102541.41;5068076;28;20039;-62
2023/10/04 07:15:28;;;;;;;21.75;12.65;;;;;;;11.07;100.00;102543.09;5051200;28;20059;-61
2023/10/04 07:17:53;;;;;;;21.90;12.73;;;;;;;11.16;100.00;102548.97;5054744;28;20126;-62
2023/10/04 07:20:19;;;;;;;21.00;12.77;;;;;;;11.21;100.00;102548.16;5061752;28;20098;-62
2023/10/04 07:22:47;;;;;;;23.77;12.60;;;;;;;11.27;100.00;102547.09;5053425;28;20033;-62
2023/10/04 07:25:13;;;;;;;24.33;13.07;;;;;;;11.35;100.00;102546.56;5061187;28;20039;-62
2023/10/04 07:27:45;;;;;;;23.65;13.52;;;;;;;11.43;100.00;102538.84;5064765;28;20028;-62
2023/10/04 07:30:14;;;;;;;23.20;13.00;;;;;;;11.51;100.00;102546.66;5082127;28;20027;-62
2023/10/04 07:32:44;;;;;;;23.17;13.38;;;;;;;11.63;100.00;102544.47;5063707;28;20509;-62
2023/10/04 07:35:20;;;;;;;23.90;13.18;;;;;;;11.66;100.00;102540.34;5085631;28;20028;-62
2023/10/04 07:37:46;;;;;;;22.70;13.07;;;;;;;11.75;100.00;102551.72;5062183;28;20032;-61
2023/10/04 07:40:14;;;;;;;22.98;12.70;;;;;;;11.82;100.00;102547.59;5072594;28;20501;-62
2023/10/04 07:42:45;;;;;;;23.55;13.63;;;;;;;11.88;100.00;102547.59;5065644;28;20170;-62
2023/10/04 07:45:12;;;;;;;22.30;12.70;;;;;;;11.90;100.00;102543.47;5069834;28;20047;-62
2023/10/04 07:47:41;;;;;;;23.63;13.43;;;;;;;12.01;100.00;102549.88;5064465;28;20041;-62
2023/10/04 07:50:09;;;;;;;24.48;13.68;;;;;;;12.04;100.00;102551.25;5068136;28;20024;-61
2023/10/04 07:52:39;;;;;;;24.35;13.77;;;;;;;12.13;100.00;102571.81;5061236;28;20047;-63
2023/10/04 07:55:05;;;;;;;22.83;12.95;;;;;;;12.19;100.00;102567.09;5061479;28;20033;-62
2023/10/04 07:57:37;;;;;;;22.33;12.98;;;;;;;12.28;100.00;102569.06;5063401;28;20040;-62
2023/10/04 08:00:11;;;;;;;23.10;12.98;;;;;;;12.39;100.00;102572.69;5081923;28;20373;-62
2023/10/04 08:02:36;;;;;;;22.92;13.02;;;;;;;12.47;100.00;102574.06;5056694;28;20037;-62
2023/10/04 08:05:04;;;;;;;25.52;13.40;;;;;;;12.55;100.00;102576.31;5068749;28;20377;-62
2023/10/04 08:07:29;;;;;;;24.88;13.18;;;;;;;12.61;100.00;102577.97;5068785;28;20036;-62
2023/10/04 08:09:54;;;;;;;22.60;13.27;;;;;;;12.76;100.00;102570.72;5068244;28;20032;-63
2023/10/04 08:12:20;;;;;;;24.45;13.93;;;;;;;12.82;100.00;102575.19;5066533;28;20083;-63
2023/10/04 08:14:47;;;;;;;24.13;14.18;;;;;;;12.89;100.00;102569.34;5069563;28;20024;-63
2023/10/04 08:17:12;;;;;;;24.73;13.88;;;;;;;12.92;100.00;102572.41;5067075;28;20100;-62
2023/10/04 08:19:37;;;;;;;23.48;13.38;;;;;;;13.00;100.00;102581.28;5073142;28;20492;-62
2023/10/04 08:22:03;;;;;;;25.05;13.27;;;;;;;13.04;100.00;102579.59;5071279;28;20029;-62
2023/10/04 08:24:29;;;;;;;24.80;13.38;;;;;;;13.08;100.00;102566.81;5071978;28;20537;-62
2023/10/04 08:26:55;;;;;;;22.65;13.70;;;;;;;13.17;100.00;102580.97;5072360;28;20135;-62
2023/10/04 08:29:20;;;;;;;22.30;14.00;;;;;;;13.24;100.00;102578.72;5075583;28;20456;-63
2023/10/04 08:31:47;;;;;;;23.00;14.18;;;;;;;13.29;100.00;102577.88;5086932;28;20032;-64
2023/10/04 08:34:12;;;;;;;24.40;13.90;;;;;;;13.32;100.00;102582.88;5050285;28;20032;-63
2023/10/04 08:36:39;;;;;;;23.70;13.52;;;;;;;13.36;100.00;102589.53;5071869;28;20396;-63
2023/10/04 08:39:10;;;;;;;22.65;13.20;;;;;;;13.43;100.00;102587.31;5075512;28;20460;-62
2023/10/04 08:41:36;;;;;;;22.98;14.05;;;;;;;13.49;100.00;102594.53;5091626;28;20145;-63
2023/10/04 08:44:03;;;;;;;24.13;13.05;;;;;;;13.56;100.00;102594.19;5091271;28;20435;-62
2023/10/04 08:46:31;;;;;;;21.42;13.50;;;;;;;13.64;100.00;102598.34;5091479;28;20101;-62
2023/10/04 08:48:58;;;;;;;22.52;13.40;;;;;;;13.68;100.00;102594.72;5084102;28;20039;-62
2023/10/04 08:51:33;;;;;;;24.70;13.30;;;;;;;13.74;100.00;102589.97;5068519;28;20039;-62
2023/10/04 08:54:08;;;;;;;26.35;14.07;;;;;;;13.82;100.00;102591.34;5065457;28;20463;-62
2023/10/04 08:56:44;;;;;;;26.10;13.85;;;;;;;13.86;100.00;102584.91;5071488;28;20047;-64
2023/10/04 08:59:11;;;;;;;23.52;13.32;;;;;;;13.90;100.00;102590.75;5064958;28;20145;-63
2023/10/04 09:01:39;;;;;;;24.27;13.40;;;;;;;13.93;100.00;102594.88;5066685;28;20039;-63
2023/10/04 09:04:07;;;;;;;22.35;13.27;;;;;;;13.93;100.00;102597.66;5044467;28;20758;-62
2023/10/04 09:06:32;;;;;;;23.08;12.90;;;;;;;13.94;100.00;102594.59;5064896;28;20598;-63
2023/10/04 09:08:58;;;;;;;24.23;13.77;;;;;;;13.98;100.00;102594.88;5056061;28;20115;-63
2023/10/04 09:11:23;;;;;;;20.98;13.02;;;;;;;14.04;100.00;102597.31;5071015;28;20044;-63
2023/10/04 09:13:52;;;;;;;22.60;12.80;;;;;;;14.08;100.00;102592.00;5052774;28;20031;-64
2023/10/04 09:16:28;;;;;;;22.83;13.60;;;;;;;14.12;100.00;102593.13;5070141;28;20681;-63
2023/10/04 09:19:17;;;;;;;25.48;13.50;;;;;;;14.15;100.00;102595.31;5070976;28;20093;-63
2023/10/04 09:21:43;;;;;;;22.88;13.20;;;;;;;14.23;100.00;102588.28;5066852;28;20033;-63
2023/10/04 09:24:14;;;;;;;25.27;13.40;;;;;;;14.32;100.00;102596.88;5061046;28;20067;-63
2023/10/04 09:26:49;;;;;;;23.73;12.82;;;;;;;14.41;100.00;102588.72;5058676;28;20087;-63
2023/10/04 09:29:16;;;;;;;29.00;13.55;;;;;;;14.47;100.00;102587.59;5057311;28;20040;-63
2023/10/04 09:31:53;;;;;;;21.33;12.52;;;;;;;14.49;100.00;102580.59;5064921;28;20460;-64
2023/10/04 09:34:19;;;;;;;22.42;12.93;;;;;;;14.60;100.00;102580.53;5053736;28;20045;-64
2023/10/04 09:36:45;;;;;;;22.83;13.45;;;;;;;14.62;100.00;102576.31;5066049;28;20025;-64
2023/10/04 09:39:13;;;;;;;22.90;13.45;;;;;;;14.66;100.00;102577.44;5071162;28;20032;-64
2023/10/04 09:41:47;;;;;;;20.10;12.60;;;;;;;14.73;100.00;102582.69;5071029;28;20131;-65
2023/10/04 09:44:29;;;;;;;23.20;12.65;;;;;;;14.80;100.00;102576.75;5068712;28;20068;-64
2023/10/04 09:47:02;;;;;;;24.05;12.70;;;;;;;14.79;100.00;102580.66;5066900;28;20031;-65
2023/10/04 09:49:31;;;;;;;24.40;13.63;;;;;;;14.87;100.00;102585.63;5066220;28;20036;-63
2023/10/04 09:51:57;;;;;;;22.67;12.90;;;;;;;14.94;100.00;102582.47;5059606;28;20044;-65
2023/10/04 09:54:23;;;;;;;22.73;12.77;;;;;;;15.00;100.00;102589.66;5052956;28;20028;-65
2023/10/04 09:56:52;;;;;;;25.02;13.10;;;;;;;15.04;100.00;102587.13;5066192;28;20040;-65
2023/10/04 09:59:19;;;;;;;22.40;13.18;;;;;;;15.10;100.00;102584.00;5064058;28;20044;-65
2023/10/04 10:02:07;;;;;;;20.00;12.55;;;;;;;15.27;100.00;102580.72;5061304;28;20028;-64
2023/10/04 10:04:38;;;;;;;22.95;13.32;;;;;;;15.31;100.00;102588.50;5066362;28;20044;-63
2023/10/04 10:07:15;;;;;;;25.25;13.27;;;;;;;15.38;100.00;102589.81;5050191;28;20540;-64
2023/10/04 10:09:43;;;;;;;23.13;12.90;;;;;;;15.41;100.00;102600.38;5052657;28;20033;-65
2023/10/04 10:12:10;;;;;;;23.63;12.93;;;;;;;15.39;100.00;102599.84;5065975;28;20032;-64
2023/10/04 10:14:36;;;;;;;21.73;12.60;;;;;;;15.41;100.00;102605.94;5062395;28;20043;-65
2023/10/04 10:17:02;;;;;;;23.83;13.13;;;;;;;15.41;100.00;102607.91;5054585;28;20029;-65
2023/10/04 10:19:29;;;;;;;22.10;13.63;;;;;;;15.44;100.00;102598.97;5056467;28;20050;-65
2023/10/04 10:22:06;;;;;;;21.80;12.90;;;;;;;15.47;100.00;102609.50;5051467;28;20052;-64
2023/10/04 10:24:33;;;;;;;25.63;13.50;;;;;;;15.46;100.00;102609.81;5052542;28;20032;-64
2023/10/04 10:27:08;;;;;;;21.55;13.88;;;;;;;15.53;100.00;102613.06;5053763;28;20037;-63
2023/10/04 10:29:36;;;;;;;22.95;13.77;;;;;;;15.55;100.00;102594.09;5049713;28;20025;-64
2023/10/04 10:32:02;;;;;;;22.15;13.07;;;;;;;15.57;100.00;102594.63;5049949;28;20044;-64
2023/10/04 10:34:28;;;;;;;21.77;12.80;;;;;;;15.50;100.00;102596.91;5049749;28;20032;-65
2023/10/04 10:37:15;;;;;;;21.70;12.98;;;;;;;15.60;100.00;102592.06;5054794;28;20028;-64
2023/10/04 10:39:48;;;;;;;22.75;12.45;;;;;;;15.52;100.00;102591.88;5057117;28;20043;-64
2023/10/04 10:42:14;;;;;;;21.88;12.65;;;;;;;15.46;99.46;102599.47;5066478;28;20049;-64
2023/10/04 10:44:40;;;;;;;22.75;12.52;;;;;;;15.46;99.67;102595.88;5058101;28;20418;-64
2023/10/04 10:47:14;;;;;;;21.60;12.50;;;;;;;15.49;99.52;102596.09;5074842;28;20095;-63
2023/10/04 10:49:39;;;;;;;21.13;12.55;;;;;;;15.57;100.00;102592.66;5073789;28;20044;-64
2023/10/04 10:52:09;;;;;;;21.08;12.85;;;;;;;15.69;100.00;102592.22;5074178;28;20024;-64
2023/10/04 10:54:35;;;;;;;23.13;12.77;;;;;;;15.78;98.25;102594.34;5074345;28;20081;-64
2023/10/04 10:57:00;;;;;;;21.58;12.68;;;;;;;15.83;97.33;102589.53;5073758;28;20033;-64
2023/10/04 10:59:25;;;;;;;23.80;13.20;;;;;;;15.89;97.43;102584.75;5073463;28;20032;-64
2023/10/04 11:01:51;;;;;;;20.77;11.88;;;;;;;15.87;95.55;102582.25;5072647;28;20500;-65
2023/10/04 11:04:16;;;;;;;21.95;12.63;;;;;;;15.82;95.00;102590.66;5072449;28;20299;-64
2023/10/04 11:06:43;;;;;;;22.60;12.18;;;;;;;15.84;96.92;102579.25;5072756;28;20028;-64